Data for 12/23/2007

Time Sea-Level Adjusted Pressure Absolute Pressure Temperature Relative Humidity Dew Point   
(mb) (inHg) (mb) (inHg) (C) (F) (%) (C) (F)
00:05 1018 30.06 848 25.04 -4.9 23.2 75 -8.6 16.5
00:10 1018 30.06 848 25.04 -4.9 23.1 75 -8.8 16.2
00:15 1018 30.06 848 25.04 -4.8 23.3 70 -9.5 14.9
00:20 1018 30.06 848 25.04 -4.4 24.1 65 -9.9 14.1
00:25 1018 30.06 848 25.04 -4.1 24.6 68 -9.2 15.5
00:30 1019 30.09 848 25.04 -4.1 24.7 71 -8.6 16.5
00:35 1019 30.09 848 25.04 -4.1 24.7 66 -9.5 14.9
00:40 1018 30.06 848 25.04 -3.7 25.3 62 -10 14
00:45 1018 30.06 848 25.04 -3.7 25.3 64 -9.6 14.7
00:50 1018 30.06 848 25.04 -3.8 25.2 61 -10.3 13.5
00:55 1018 30.06 847 25.01 -4 24.9 68 -9.1 15.7
01:00 1018 30.06 847 25.01 -4.1 24.6 58 -11.1 12
01:05 1018 30.06 847 25.01 -3.6 25.5 63 -9.8 14.4
01:10 1018 30.06 847 25.01 -3.9 25 66 -9.3 15.2
01:15 1018 30.06 847 25.01 -4.1 24.5 64 -10 14
01:20 1018 30.06 847 25.01 -4.2 24.5 61 -10.5 13
01:25 1018 30.06 847 25.01 -4 24.7 63 -10 14
01:30 1018 30.06 847 25.01 -4 24.8 64 -9.8 14.4
01:35 1018 30.06 847 25.01 -4.1 24.6 63 -10.2 13.7
01:40 1018 30.06 847 25.01 -4.2 24.5 63 -10.3 13.5
01:45 1018 30.06 847 25.01 -4.1 24.6 59 -11 12.3
01:50 1018 30.06 847 25.01 -3.9 25 59 -10.8 12.5
01:55 1018 30.06 847 25.01 -3.8 25.2 57 -11.1 12.1
02:00 1018 30.06 848 25.04 -3.4 26 57 -10.7 12.7
02:05 1019 30.09 848 25.04 -3.1 26.4 56 -10.7 12.7
02:10 1019 30.09 848 25.04 -3 26.6 56 -10.6 12.9
02:15 1019 30.09 848 25.04 -2.9 26.8 56 -10.6 12.9
02:20 1019 30.09 848 25.04 -2.8 26.9 56 -10.5 13.2
02:25 1019 30.09 848 25.04 -2.8 27 58 -10 13.9
02:30 1019 30.09 848 25.04 -2.6 27.3 56 -10.3 13.5
02:35 1019 30.09 848 25.04 -2.6 27.4 56 -10.2 13.7
02:40 1019 30.09 849 25.07 -2.5 27.5 57 -9.8 14.3
02:45 1019 30.09 849 25.07 -2.6 27.3 58 -9.9 14.2
02:50 1020 30.12 849 25.07 -2.7 27.2 57 -10.1 13.7
02:55 1020 30.12 849 25.07 -2.7 27.2 57 -9.9 14.1
03:00 1020 30.12 849 25.07 -2.8 27 60 -9.6 14.7
03:05 1020 30.12 849 25.07 -2.9 26.7 59 -9.9 14.2
03:10 1020 30.12 849 25.07 -3 26.6 60 -9.6 14.6
03:15 1020 30.12 849 25.07 -3 26.6 60 -9.7 14.5
03:20 1020 30.12 849 25.07 -3 26.7 59 -9.8 14.3
03:25 1020 30.12 849 25.07 -2.9 26.7 60 -9.7 14.6
03:30 1020 30.12 849 25.07 -3 26.7 60 -9.6 14.7
03:35 1020 30.12 849 25.07 -2.9 26.7 60 -9.6 14.8
03:40 1020 30.12 849 25.07 -2.9 26.8 61 -9.4 15.2
03:45 1020 30.12 849 25.07 -3 26.7 62 -9.2 15.4
03:50 1020 30.12 850 25.1 -2.9 26.8 62 -9.2 15.5
03:55 1021 30.15 850 25.1 -2.9 26.8 63 -9 15.8
04:00 1021 30.15 850 25.1 -2.9 26.8 63 -9 15.9
04:05 1021 30.15 850 25.1 -2.9 26.7 65 -8.7 16.4
04:10 1020 30.12 850 25.1 -3 26.7 65 -8.7 16.3
04:15 1021 30.15 850 25.1 -2.8 26.9 63 -8.8 16.1
04:20 1021 30.15 850 25.1 -2.7 27.1 64 -8.7 16.3
04:25 1021 30.15 850 25.1 -2.6 27.2 62 -8.9 16
04:30 1021 30.15 850 25.1 -2.5 27.5 63 -8.6 16.5
04:35 1021 30.15 850 25.1 -2.5 27.5 63 -8.5 16.6
04:40 1021 30.15 850 25.1 -2.4 27.7 62 -8.6 16.5
04:45 1021 30.15 850 25.1 -2.3 27.9 62 -8.7 16.4
04:50 1020 30.12 850 25.1 -2 28.4 59 -9.1 15.7
04:55 1020 30.12 849 25.07 -1.5 29.3 59 -8.6 16.6
05:00 1020 30.12 850 25.1 -1.5 29.3 59 -8.4 16.9
05:05 1020 30.12 850 25.1 -1.6 29.2 60 -8.2 17.2
05:10 1021 30.15 850 25.1 -1.6 29 60 -8.5 16.7
05:15 1021 30.15 850 25.1 -1.7 29 59 -8.8 16.2
05:20 1021 30.15 850 25.1 -1.7 28.9 59 -8.8 16.2
05:25 1021 30.15 850 25.1 -1.8 28.7 58 -9.1 15.6
05:30 1021 30.15 850 25.1 -1.8 28.8 58 -8.9 15.9
05:35 1021 30.15 850 25.1 -1.8 28.8 57 -9.2 15.4
05:40 1021 30.15 850 25.1 -1.7 29 57 -9.2 15.5
05:45 1021 30.15 850 25.1 -1.6 29.1 57 -9.1 15.6
05:50 1021 30.15 850 25.1 -1.6 29.1 57 -9.1 15.6
05:55 1021 30.15 850 25.1 -1.6 29.1 56 -9.2 15.4
06:00 1021 30.15 850 25.1 -1.6 29.2 57 -9.1 15.7
06:05 1021 30.15 851 25.13 -1.5 29.3 56 -9.2 15.5
06:10 1021 30.15 851 25.13 -1.5 29.3 57 -9 15.9
06:15 1021 30.15 851 25.13 -1.6 29.1 58 -8.9 16
06:20 1022 30.18 851 25.13 -1.8 28.8 60 -8.5 16.6
06:25 1022 30.18 851 25.13 -2 28.5 59 -8.9 16
06:30 1022 30.18 851 25.13 -1.9 28.6 59 -8.9 16
06:35 1022 30.18 851 25.13 -1.9 28.6 59 -9 15.8
06:40 1022 30.18 851 25.13 -2 28.3 59 -9 15.7
06:45 1022 30.18 851 25.13 -2.1 28.2 59 -9 15.8
06:50 1022 30.18 851 25.13 -2 28.4 59 -9 15.8
06:55 1022 30.18 851 25.13 -1.9 28.6 59 -8.8 16.1
07:00 1021 30.15 851 25.13 -1.9 28.5 58 -9.1 15.6
07:05 1021 30.15 851 25.13 -1.8 28.7 57 -9.3 15.3
07:10 1021 30.15 851 25.13 -1.9 28.6 58 -9.1 15.7
07:15 1021 30.15 851 25.13 -1.9 28.5 58 -9.1 15.6
07:20 1021 30.15 851 25.13 -1.9 28.5 58 -9 15.7
07:25 1022 30.18 851 25.13 -2 28.4 58 -9.1 15.6
07:30 1022 30.18 851 25.13 -1.9 28.6 57 -9.2 15.4
07:35 1022 30.18 851 25.13 -1.7 28.9 57 -9.3 15.3
07:40 1022 30.18 851 25.13 -1.7 29 56 -9.2 15.4
07:45 1022 30.18 851 25.13 -1.7 28.9 58 -8.9 16
07:50 1022 30.18 851 25.13 -1.7 29 56 -9.3 15.2
07:55 1022 30.18 851 25.13 -1.5 29.4 57 -8.9 15.9
08:00 1022 30.18 851 25.13 -1.4 29.4 56 -9.2 15.4
08:05 1022 30.18 851 25.13 -1.2 29.8 54 -9.4 15.1
08:10 1022 30.18 851 25.13 -1.2 29.9 53 -9.5 15
08:15 1022 30.18 851 25.13 -1.2 29.9 54 -9.4 15
08:20 1022 30.18 851 25.13 -1.1 30 51 -10.1 13.9
08:25 1022 30.18 851 25.13 -1 30.2 53 -9.3 15.3
08:30 1022 30.18 851 25.13 -1.2 29.8 53 -9.5 14.9
08:35 1022 30.18 851 25.13 -1.3 29.7 54 -9.4 15.2
08:40 1022 30.18 852 25.16 -1.3 29.6 56 -9.1 15.6
08:45 1022 30.18 852 25.16 -1.5 29.3 56 -9.1 15.7
08:50 1022 30.18 852 25.16 -1.6 29.1 54 -9.7 14.5
08:55 1022 30.18 852 25.16 -1.6 29.2 54 -9.6 14.7
09:00 1022 30.18 852 25.16 -1.5 29.3 54 -9.6 14.8
09:05 1022 30.18 852 25.16 -1.6 29.2 54 -9.7 14.5
09:10 1023 30.21 852 25.16 -1.6 29.1 54 -9.6 14.7
09:15 1023 30.21 852 25.16 -1.5 29.4 54 -9.7 14.6
09:20 1023 30.21 852 25.16 -1.4 29.4 54 -9.5 14.9
09:25 1023 30.21 852 25.16 -1.4 29.4 55 -9.4 15
09:30 1023 30.21 852 25.16 -1.3 29.6 53 -9.7 14.6
09:35 1023 30.21 852 25.16 -1.3 29.6 53 -9.6 14.7
09:40 1023 30.21 852 25.16 -1.4 29.5 55 -9.4 15.2
09:45 1023 30.21 852 25.16 -1.4 29.5 55 -9.4 15.2
09:50 1023 30.21 852 25.16 -1.3 29.6 55 -9.2 15.4
09:55 1023 30.21 852 25.16 -1.3 29.6 57 -8.9 16
10:00 1023 30.21 852 25.16 -1.3 29.7 56 -9 15.8
10:05 1023 30.21 852 25.16 -1.2 29.8 56 -8.9 15.9
10:10 1023 30.21 852 25.16 -1.2 29.8 54 -9.3 15.3
10:15 1023 30.21 852 25.16 -1.1 30.1 54 -9.3 15.2
10:20 1023 30.21 852 25.16 -1 30.3 52 -9.6 14.7
10:25 1023 30.21 852 25.16 -0.8 30.5 52 -9.6 14.8
10:30 1023 30.21 852 25.16 -0.8 30.5 52 -9.4 15
10:35 1023 30.21 853 25.19 -0.9 30.5 53 -9.3 15.2
10:40 1023 30.21 853 25.19 -0.8 30.6 52 -9.5 14.8
10:45 1023 30.21 853 25.19 -0.5 31.2 50 -9.5 14.8
10:50 1023 30.21 853 25.19 -0.3 31.5 50 -9.4 15.1
10:55 1023 30.21 852 25.16 -0.3 31.5 48 -9.9 14.2
11:00 1023 30.21 852 25.16 -0.2 31.6 48 -9.9 14.2
11:05 1023 30.21 852 25.16 0.2 32.3 47 -9.9 14.2
11:10 1023 30.21 852 25.16 0.4 32.8 46 -9.8 14.3
11:15 1023 30.21 852 25.16 0.5 33 46 -9.9 14.3
11:20 1023 30.21 852 25.16 0.5 32.8 45 -10.2 13.7
11:25 1023 30.21 852 25.16 0.7 33.2 45 -10.1 13.9
11:30 1023 30.21 852 25.16 1 33.7 43 -10.2 13.6
11:35 1023 30.21 852 25.16 1.3 34.3 43 -10.1 13.8
11:40 1023 30.21 852 25.16 1.4 34.5 43 -10 14.1
11:45 1023 30.21 852 25.16 2.3 36.1 41 -9.7 14.6
11:50 1023 30.21 852 25.16 2.6 36.7 42 -9 15.8
11:55 1023 30.21 852 25.16 1.6 34.9 45 -9.2 15.5
12:00 1023 30.21 852 25.16 1.6 34.8 43 -9.8 14.4
12:05 1023 30.21 852 25.16 1.9 35.4 43 -9.4 15.2
12:10 1023 30.21 852 25.16 2 35.6 42 -9.7 14.5
12:15 1023 30.21 852 25.16 2.2 36 41 -9.7 14.6
12:20 1023 30.21 852 25.16 1.7 35.1 44 -9.3 15.2
12:25 1023 30.21 852 25.16 1.8 35.3 43 -9.5 14.9
12:30 1023 30.21 852 25.16 2.5 36.5 40 -9.8 14.4
12:35 1023 30.21 852 25.16 2.7 36.9 39 -9.9 14.2
12:40 1023 30.21 852 25.16 2.9 37.2 40 -9.6 14.7
12:45 1023 30.21 852 25.16 3.2 37.7 38 -10 14.1
12:50 1023 30.21 852 25.16 3.2 37.8 39 -9.5 14.8
12:55 1023 30.21 852 25.16 3.5 38.3 37 -10 14
13:00 1023 30.21 852 25.16 3.6 38.5 35 -10.6 13
13:05 1023 30.21 852 25.16 3.7 38.7 35 -10.5 13
13:10 1023 30.21 852 25.16 3.5 38.2 36 -10.3 13.5
13:15 1022 30.18 852 25.16 3.4 38.1 34 -11 12.2
13:20 1022 30.18 852 25.16 3.5 38.3 35 -10.6 12.9
13:25 1022 30.18 851 25.13 3.4 38.1 35 -10.7 12.8
13:30 1022 30.18 851 25.13 3.3 38 35 -10.9 12.4
13:35 1022 30.18 851 25.13 3.5 38.3 34 -11 12.2
13:40 1022 30.18 851 25.13 3.5 38.3 34 -10.8 12.5
13:45 1022 30.18 851 25.13 3.7 38.6 34 -10.8 12.5
13:50 1022 30.18 851 25.13 3.6 38.5 35 -10.5 13.1
13:55 1022 30.18 851 25.13 3.5 38.3 35 -10.4 13.2
14:00 1022 30.18 851 25.13 3.9 39 34 -10.5 13.2
14:05 1022 30.18 851 25.13 4.1 39.3 34 -10.3 13.5
14:10 1022 30.18 851 25.13 4.1 39.4 35 -10.2 13.7
14:15 1022 30.18 851 25.13 4.1 39.4 33 -10.7 12.8
14:20 1022 30.18 851 25.13 3.3 38 35 -10.8 12.5
14:25 1022 30.18 851 25.13 3.6 38.5 35 -10.4 13.3
14:30 1022 30.18 851 25.13 3.5 38.3 36 -10.2 13.6
14:35 1022 30.18 851 25.13 3.2 37.7 37 -10 14
14:40 1022 30.18 851 25.13 3.1 37.5 40 -9.2 15.5
14:45 1022 30.18 851 25.13 2.6 36.7 39 -10 14
14:50 1022 30.18 851 25.13 2.8 37.1 36 -10.9 12.3
14:55 1022 30.18 851 25.13 2.8 37 37 -10.4 13.3
15:00 1022 30.18 851 25.13 2.7 36.8 38 -10.2 13.7
15:05 1022 30.18 851 25.13 3.3 37.9 36 -10.6 13
15:10 1022 30.18 851 25.13 2.9 37.1 38 -10.1 13.7
15:15 1022 30.18 851 25.13 2.2 36 38 -10.8 12.5
15:20 1022 30.18 851 25.13 2.5 36.5 41 -9.6 14.7
15:25 1022 30.18 851 25.13 2 35.6 42 -9.6 14.7
15:30 1022 30.18 851 25.13 2 35.6 42 -9.7 14.5
15:35 1022 30.18 851 25.13 1.7 35.1 41 -10.1 13.9
15:40 1022 30.18 851 25.13 1.4 34.6 43 -9.7 14.5
15:45 1022 30.18 851 25.13 1.3 34.3 43 -9.9 14.1
15:50 1022 30.18 851 25.13 1.5 34.6 41 -10.3 13.5
15:55 1022 30.18 851 25.13 1 33.7 45 -9.7 14.5
16:00 1022 30.18 851 25.13 0.5 32.8 46 -9.8 14.4
16:05 1022 30.18 851 25.13 0.2 32.4 47 -9.8 14.3
16:10 1022 30.18 851 25.13 0.2 32.4 46 -10.1 13.9
16:15 1022 30.18 851 25.13 0.3 32.5 45 -10.3 13.4
16:20 1022 30.18 851 25.13 0.5 32.8 47 -9.7 14.5
16:25 1021 30.15 851 25.13 0.6 33.1 43 -10.5 13.1
16:30 1021 30.15 851 25.13 0.3 32.6 45 -10.2 13.7
16:35 1021 30.15 850 25.1 -0.2 31.6 52 -8.8 16.1
16:40 1021 30.15 850 25.1 -0.4 31.4 49 -9.8 14.4
16:45 1021 30.15 850 25.1 -0.2 31.7 52 -8.7 16.3
16:50 1021 30.15 850 25.1 -0.5 31.2 51 -9.4 15
16:55 1021 30.15 850 25.1 -0.9 30.3 52 -9.6 14.8
17:00 1021 30.15 850 25.1 -0.7 30.8 52 -9.4 15
17:05 1021 30.15 850 25.1 -0.7 30.7 53 -9.1 15.6
17:10 1021 30.15 850 25.1 -1.1 30 55 -9 15.8
17:15 1021 30.15 850 25.1 -1.2 29.9 53 -9.5 14.9
17:20 1021 30.15 850 25.1 -0.8 30.5 54 -9 15.7
17:25 1021 30.15 850 25.1 -0.9 30.4 56 -8.5 16.7
17:30 1021 30.15 850 25.1 -1.4 29.5 60 -8.3 17.1
17:35 1021 30.15 850 25.1 -1.6 29.1 58 -8.8 16.2
17:40 1021 30.15 850 25.1 -1.3 29.7 54 -9.3 15.2
17:45 1021 30.15 850 25.1 -0.8 30.6 57 -8.4 17
17:50 1021 30.15 850 25.1 -1.5 29.3 62 -7.9 17.7
17:55 1021 30.15 850 25.1 -2 28.3 63 -8.2 17.2
18:00 1021 30.15 850 25.1 -1.9 28.5 60 -8.8 16.2
18:05 1020 30.12 850 25.1 -1.9 28.6 61 -8.4 16.9
18:10 1020 30.12 850 25.1 -1.6 29.2 58 -8.8 16.2
18:15 1020 30.12 850 25.1 -1.5 29.2 60 -8.3 17.1
18:20 1020 30.12 849 25.07 -2.1 28.2 62 -8.3 17
18:25 1020 30.12 849 25.07 -2.2 28 60 -9 15.8
18:30 1020 30.12 850 25.1 -1.7 29 58 -8.9 16
18:35 1020 30.12 849 25.07 -1.3 29.7 56 -9 15.8
18:40 1020 30.12 849 25.07 -1.2 29.9 55 -9.1 15.7
18:45 1020 30.12 849 25.07 -1.4 29.4 59 -8.5 16.7
18:50 1020 30.12 849 25.07 -1.9 28.5 63 -8 17.6
18:55 1020 30.12 849 25.07 -2.6 27.3 59 -9.6 14.7
19:00 1020 30.12 849 25.07 -1.9 28.7 56 -9.4 15
19:05 1020 30.12 849 25.07 -1.4 29.5 57 -8.9 15.9
19:10 1020 30.12 849 25.07 -1.7 29 56 -9.4 15
19:15 1020 30.12 849 25.07 -1.6 29 57 -9 15.8
19:20 1020 30.12 849 25.07 -1.8 28.7 59 -8.7 16.3
19:25 1020 30.12 849 25.07 -2.2 28 62 -8.4 16.8
19:30 1020 30.12 849 25.07 -2.3 27.8 61 -8.9 16
19:35 1020 30.12 849 25.07 -1.8 28.7 59 -8.9 16
19:40 1020 30.12 849 25.07 -1.8 28.8 63 -7.9 17.8
19:45 1020 30.12 849 25.07 -2.2 28.1 63 -8.4 17
19:50 1020 30.12 849 25.07 -2 28.4 63 -8.1 17.4
19:55 1020 30.12 849 25.07 -2.1 28.2 65 -7.8 17.9
20:00 1020 30.12 849 25.07 -2.1 28.1 64 -8 17.6
20:05 1020 30.12 849 25.07 -2 28.4 65 -7.8 18
20:10 1020 30.12 849 25.07 -1.8 28.8 62 -8.1 17.5
20:15 1020 30.12 849 25.07 -1.4 29.6 60 -8.1 17.5
20:20 1020 30.12 849 25.07 -1.1 30 59 -8.1 17.5
20:25 1020 30.12 849 25.07 -1.1 30.1 61 -7.6 18.3
20:30 1020 30.12 849 25.07 -1 30.2 56 -8.7 16.4
20:35 1019 30.09 849 25.07 -0.9 30.5 61 -7.4 18.7
20:40 1019 30.09 849 25.07 -0.9 30.3 59 -8.1 17.5
20:45 1019 30.09 848 25.04 -1 30.2 62 -7.5 18.6
20:50 1019 30.09 848 25.04 -1.3 29.6 64 -7.3 18.8
20:55 1019 30.09 848 25.04 -1.3 29.6 61 -7.9 17.8
21:00 1019 30.09 848 25.04 -1.3 29.7 62 -7.7 18.1
21:05 1019 30.09 848 25.04 -1.4 29.5 63 -7.4 18.6
21:10 1019 30.09 848 25.04 -1.5 29.3 66 -7 19.4
21:15 1019 30.09 848 25.04 -1.8 28.7 63 -8 17.7
21:20 1019 30.09 848 25.04 -2 28.5 63 -8.1 17.5
21:25 1019 30.09 848 25.04 -2 28.5 64 -7.8 17.9
21:30 1018 30.06 848 25.04 -2 28.4 65 -7.8 17.9
21:35 1018 30.06 847 25.01 -2 28.4 63 -8.2 17.2
21:40 1018 30.06 847 25.01 -1.9 28.5 64 -7.9 17.8
21:45 1018 30.06 847 25.01 -1.9 28.5 64 -7.8 18
21:50 1018 30.06 847 25.01 -2.1 28.3 62 -8.5 16.7
21:55 1018 30.06 847 25.01 -1.8 28.7 61 -8.5 16.8
22:00 1018 30.06 847 25.01 -1.7 28.9 62 -8 17.6
22:05 1018 30.06 847 25.01 -1.9 28.6 61 -8.3 17
22:10 1018 30.06 847 25.01 -1.8 28.7 62 -8.2 17.2
22:15 1018 30.06 847 25.01 -1.7 28.9 61 -8.2 17.2
22:20 1017 30.03 847 25.01 -1.9 28.6 64 -7.9 17.8
22:25 1017 30.03 847 25.01 -2 28.4 63 -8.2 17.3
22:30 1017 30.03 847 25.01 -1.9 28.6 63 -8 17.6
22:35 1017 30.03 846 24.98 -1.9 28.5 63 -8.1 17.5
22:40 1017 30.03 846 24.98 -1.9 28.5 63 -8.1 17.4
22:45 1017 30.03 846 24.98 -2 28.5 64 -7.9 17.7
22:50 1017 30.03 846 24.98 -2 28.4 61 -8.5 16.7
22:55 1017 30.03 846 24.98 -1.8 28.7 62 -8.3 17.1
23:00 1017 30.03 846 24.98 -1.8 28.7 62 -8.1 17.4
23:05 1017 30.03 846 24.98 -1.7 28.9 63 -7.8 17.9
23:10 1017 30.03 846 24.98 -1.7 28.9 62 -8.2 17.3
23:15 1017 30.03 846 24.98 -1.6 29 59 -8.7 16.4
23:20 1017 30.03 846 24.98 -1.4 29.5 58 -8.5 16.7
23:25 1017 30.03 846 24.98 -1.3 29.6 60 -8 17.5
23:30 1017 30.03 846 24.98 -1.4 29.5 64 -7.3 18.8
23:35 1017 30.03 846 24.98 -1.5 29.4 65 -7.2 19
23:40 1017 30.03 846 24.98 -1.6 29.2 66 -7.2 19.1
23:45 1016 30 846 24.98 -1.4 29.5 66 -7 19.5
23:50 1016 30 846 24.98 -1.2 29.8 66 -6.8 19.7
23:55 1016 30 846 24.98 -1.5 29.2 67 -6.9 19.6
24:00 1016 30 846 24.98 -1.7 28.9 67 -7.1 19.2